Time,TemperatureF,DewpointF,PressureIn,WindDirection,WindDirectionDegrees,WindSpeedMPH,WindSpeedGustMPH,Humidity,HourlyPrecipIn,Conditions,Clouds,dailyrainin,SoftwareType,DateUTC
2013-05-09 00:06:00,53.8,49.0,30.13,WSW,242,0.0,-999.0,83,-99.99,,,0.00,weatherlink.com 1.10,2013-05-09 07:06:00,
2013-05-09 00:21:00,53.8,49.0,30.14,SW,234,0.0,-999.0,83,-99.99,,,0.00,weatherlink.com 1.10,2013-05-09 07:21:00,
2013-05-09 00:36:00,53.9,49.0,30.14,SE,144,0.0,-999.0,83,-99.99,,,0.00,weatherlink.com 1.10,2013-05-09 07:36:00,
2013-05-09 00:51:00,53.9,49.0,30.14,South,187,0.0,-999.0,83,-99.99,,,0.00,weatherlink.com 1.10,2013-05-09 07:51:00,
2013-05-09 01:06:00,53.8,49.0,30.14,WSW,243,0.0,-999.0,83,-99.99,,,0.00,weatherlink.com 1.10,2013-05-09 08:06:00,
2013-05-09 01:21:00,53.8,48.0,30.14,SE,140,0.0,-999.0,82,-99.99,,,0.00,weatherlink.com 1.10,2013-05-09 08:21:00,
2013-05-09 01:36:00,53.8,48.0,30.14,SSE,160,1.0,-999.0,82,-99.99,,,0.00,weatherlink.com 1.10,2013-05-09 08:36:00,
2013-05-09 01:51:00,53.6,49.0,30.13,South,191,0.0,-999.0,83,-99.99,,,0.00,weatherlink.com 1.10,2013-05-09 08:51:00,
2013-05-09 02:06:00,53.5,49.0,30.13,WSW,251,0.0,-999.0,83,-99.99,,,0.00,weatherlink.com 1.10,2013-05-09 09:06:00,
2013-05-09 02:21:00,53.5,49.0,30.13,East,101,0.0,-999.0,83,-99.99,,,0.00,weatherlink.com 1.10,2013-05-09 09:21:00,
2013-05-09 02:36:00,53.5,49.0,30.12,SW,236,0.0,-999.0,83,-99.99,,,0.00,weatherlink.com 1.10,2013-05-09 09:36:00,
2013-05-09 02:51:00,53.5,49.0,30.12,East,100,3.0,-999.0,83,-99.99,,,0.00,weatherlink.com 1.10,2013-05-09 09:51:00,
2013-05-09 03:06:00,53.5,48.0,30.12,SSW,204,1.0,-999.0,82,-99.99,,,0.00,weatherlink.com 1.10,2013-05-09 10:06:00,
2013-05-09 03:21:00,53.5,48.0,30.12,SSW,192,0.0,-999.0,82,-99.99,,,0.00,weatherlink.com 1.10,2013-05-09 10:21:00,
2013-05-09 03:36:00,53.5,49.0,30.12,SE,145,0.0,-999.0,83,-99.99,,,0.00,weatherlink.com 1.10,2013-05-09 10:36:00,
2013-05-09 03:51:00,53.5,48.0,30.12,SSW,192,0.0,-999.0,82,-99.99,,,0.00,weatherlink.com 1.10,2013-05-09 10:51:00,
2013-05-09 04:06:00,53.2,48.0,30.12,SW,232,1.0,-999.0,83,-99.99,,,0.00,weatherlink.com 1.10,2013-05-09 11:06:00,
2013-05-09 04:21:00,53.1,48.0,30.11,East,96,0.0,-999.0,83,-99.99,,,0.00,weatherlink.com 1.10,2013-05-09 11:21:00,
2013-05-09 04:36:00,53.1,48.0,30.11,SSE,168,0.0,-999.0,84,-99.99,,,0.00,weatherlink.com 1.10,2013-05-09 11:36:00,
2013-05-09 04:51:00,53.1,48.0,30.11,South,183,0.0,-999.0,84,-99.99,,,0.00,weatherlink.com 1.10,2013-05-09 11:51:00,
2013-05-09 05:06:00,53.1,48.0,30.11,South,184,0.0,-999.0,84,-99.99,,,0.00,weatherlink.com 1.10,2013-05-09 12:06:00,
2013-05-09 05:21:00,53.1,48.0,30.11,SW,215,2.0,-999.0,84,-99.99,,,0.00,weatherlink.com 1.10,2013-05-09 12:21:00,
2013-05-09 05:37:00,53.1,48.0,30.11,SSW,209,0.0,-999.0,83,-99.99,,,0.00,weatherlink.com 1.10,2013-05-09 12:37:00,
2013-05-09 05:52:00,53.1,48.0,30.11,South,169,0.0,-999.0,83,-99.99,,,0.00,weatherlink.com 1.10,2013-05-09 12:52:00,
2013-05-09 06:07:00,53.2,48.0,30.11,SSE,166,0.0,-999.0,83,-99.99,,,0.00,weatherlink.com 1.10,2013-05-09 13:07:00,
2013-05-09 06:22:00,53.2,48.0,30.11,SW,226,0.0,-999.0,83,-99.99,,,0.00,weatherlink.com 1.10,2013-05-09 13:22:00,
2013-05-09 06:37:00,53.2,48.0,30.11,SSE,150,0.0,-999.0,83,-99.99,,,0.00,weatherlink.com 1.10,2013-05-09 13:37:00,
2013-05-09 06:52:00,53.3,48.0,30.12,ENE,68,0.0,-999.0,83,-99.99,,,0.00,weatherlink.com 1.10,2013-05-09 13:52:00,
2013-05-09 07:07:00,53.5,48.0,30.12,SE,136,0.0,-999.0,82,-99.99,,,0.00,weatherlink.com 1.10,2013-05-09 14:07:00,
2013-05-09 07:22:00,53.8,48.0,30.12,WSW,248,1.0,-999.0,82,-99.99,,,0.00,weatherlink.com 1.10,2013-05-09 14:22:00,
2013-05-09 07:37:00,54.1,48.0,30.13,SE,145,0.0,-999.0,81,-99.99,,,0.00,weatherlink.com 1.10,2013-05-09 14:37:00,
2013-05-09 07:52:00,54.4,48.0,30.14,SW,225,0.0,-999.0,80,-99.99,,,0.00,weatherlink.com 1.10,2013-05-09 14:52:00,
2013-05-09 08:07:00,54.7,48.0,30.14,SSW,192,1.0,-999.0,79,-99.99,,,0.00,weatherlink.com 1.10,2013-05-09 15:07:00,
2013-05-09 08:22:00,55.0,49.0,30.14,SW,221,0.0,-999.0,79,-99.99,,,0.00,weatherlink.com 1.10,2013-05-09 15:22:00,
2013-05-09 08:36:00,55.1,48.0,30.15,East,89,0.0,-999.0,78,-99.99,,,0.00,weatherlink.com 1.10,2013-05-09 15:36:00,
2013-05-09 08:51:00,55.6,49.0,30.15,SSW,205,0.0,-999.0,78,-99.99,,,0.00,weatherlink.com 1.10,2013-05-09 15:51:00,
2013-05-09 09:07:00,55.4,48.0,30.15,SSW,212,0.0,-999.0,77,-99.99,,,0.00,weatherlink.com 1.10,2013-05-09 16:07:00,
2013-05-09 09:21:00,55.7,49.0,30.15,SW,223,0.0,-999.0,77,-99.99,,,0.00,weatherlink.com 1.10,2013-05-09 16:21:00,
2013-05-09 09:37:00,56.0,49.0,30.16,SE,135,0.0,-999.0,76,-99.99,,,0.00,weatherlink.com 1.10,2013-05-09 16:37:00,
2013-05-09 09:52:00,56.7,49.0,30.16,SSE,153,0.0,-999.0,74,-99.99,,,0.00,weatherlink.com 1.10,2013-05-09 16:52:00,
2013-05-09 10:07:00,57.0,49.0,30.16,SW,215,0.0,-999.0,74,-99.99,,,0.00,weatherlink.com 1.10,2013-05-09 17:07:00,
2013-05-09 10:22:00,57.6,49.0,30.16,South,180,1.0,-999.0,72,-99.99,,,0.00,weatherlink.com 1.10,2013-05-09 17:22:00,
2013-05-09 10:37:00,58.0,49.0,30.16,WSW,245,3.0,-999.0,73,-99.99,,,0.00,weatherlink.com 1.10,2013-05-09 17:37:00,
2013-05-09 10:52:00,58.6,49.0,30.16,West,263,2.0,-999.0,71,-99.99,,,0.00,weatherlink.com 1.10,2013-05-09 17:52:00,
2013-05-09 11:07:00,59.2,49.0,30.16,East,101,0.0,-999.0,69,-99.99,,,0.00,weatherlink.com 1.10,2013-05-09 18:07:00,
2013-05-09 11:22:00,60.1,50.0,30.16,West,259,1.0,-999.0,69,-99.99,,,0.00,weatherlink.com 1.10,2013-05-09 18:22:00,
2013-05-09 11:37:00,60.7,50.0,30.17,SSW,205,1.0,-999.0,67,-99.99,,,0.00,weatherlink.com 1.10,2013-05-09 18:37:00,
2013-05-09 11:52:00,61.3,50.0,30.16,South,184,0.0,-999.0,66,-99.99,,,0.00,weatherlink.com 1.10,2013-05-09 18:52:00,
2013-05-09 12:07:00,60.9,49.0,30.16,WSW,242,0.0,-999.0,66,-99.99,,,0.00,weatherlink.com 1.10,2013-05-09 19:07:00,
2013-05-09 12:22:00,61.0,49.0,30.16,WSW,249,2.0,-999.0,65,-99.99,,,0.00,weatherlink.com 1.10,2013-05-09 19:22:00,
2013-05-09 12:37:00,61.8,49.0,30.15,SSE,167,1.0,-999.0,64,-99.99,,,0.00,weatherlink.com 1.10,2013-05-09 19:37:00,
2013-05-09 12:52:00,61.8,50.0,30.15,SE,139,0.0,-999.0,65,-99.99,,,0.00,weatherlink.com 1.10,2013-05-09 19:52:00,
2013-05-09 13:07:00,62.0,50.0,30.16,SW,232,2.0,-999.0,65,-99.99,,,0.00,weatherlink.com 1.10,2013-05-09 20:07:00,
2013-05-09 13:22:00,62.6,50.0,30.16,SSE,152,0.0,-999.0,64,-99.99,,,0.00,weatherlink.com 1.10,2013-05-09 20:22:00,
2013-05-09 13:37:00,63.7,50.0,30.16,SSE,151,3.0,-999.0,62,-99.99,,,0.00,weatherlink.com 1.10,2013-05-09 20:37:00,
2013-05-09 13:53:00,63.7,50.0,30.15,West,262,4.0,-999.0,62,-99.99,,,0.00,weatherlink.com 1.10,2013-05-09 20:53:00,
2013-05-09 14:08:00,63.1,51.0,30.15,SSW,213,3.0,-999.0,64,-99.99,,,0.00,weatherlink.com 1.10,2013-05-09 21:08:00,
2013-05-09 14:22:00,64.2,50.0,30.15,SW,225,0.0,-999.0,61,-99.99,,,0.00,weatherlink.com 1.10,2013-05-09 21:22:00,
2013-05-09 14:38:00,64.5,51.0,30.15,East,94,1.0,-999.0,61,-99.99,,,0.00,weatherlink.com 1.10,2013-05-09 21:38:00,
2013-05-09 14:53:00,64.7,50.0,30.15,WSW,257,0.0,-999.0,60,-99.99,,,0.00,weatherlink.com 1.10,2013-05-09 21:53:00,
2013-05-09 15:08:00,64.5,51.0,30.15,SW,215,2.0,-999.0,61,-99.99,,,0.00,weatherlink.com 1.10,2013-05-09 22:08:00,
2013-05-09 15:23:00,63.5,50.0,30.14,SW,220,1.0,-999.0,62,-99.99,,,0.00,weatherlink.com 1.10,2013-05-09 22:23:00,
2013-05-09 15:38:00,63.2,51.0,30.14,SW,224,2.0,-999.0,64,-99.99,,,0.00,weatherlink.com 1.10,2013-05-09 22:38:00,
2013-05-09 15:53:00,64.3,51.0,30.13,West,263,0.0,-999.0,62,-99.99,,,0.00,weatherlink.com 1.10,2013-05-09 22:53:00,
2013-05-09 16:08:00,64.3,50.0,30.12,South,180,0.0,-999.0,61,-99.99,,,0.00,weatherlink.com 1.10,2013-05-09 23:08:00,
2013-05-09 16:23:00,63.9,51.0,30.12,WSW,250,0.0,-999.0,63,-99.99,,,0.00,weatherlink.com 1.10,2013-05-09 23:23:00,
2013-05-09 16:38:00,63.7,50.0,30.11,WSW,242,3.0,-999.0,62,-99.99,,,0.00,weatherlink.com 1.10,2013-05-09 23:38:00,
2013-05-09 16:53:00,63.5,51.0,30.11,ESE,115,3.0,-999.0,63,-99.99,,,0.00,weatherlink.com 1.10,2013-05-09 23:53:00,
2013-05-09 17:08:00,63.9,50.0,30.11,WSW,245,1.0,-999.0,62,-99.99,,,0.00,weatherlink.com 1.10,2013-05-10 00:08:00,
2013-05-09 17:23:00,63.2,50.0,30.11,WSW,253,0.0,-999.0,63,-99.99,,,0.00,weatherlink.com 1.10,2013-05-10 00:23:00,
2013-05-09 17:38:00,62.7,50.0,30.11,ESE,116,0.0,-999.0,64,-99.99,,,0.00,weatherlink.com 1.10,2013-05-10 00:38:00,
2013-05-09 17:53:00,62.6,50.0,30.11,WSW,249,3.0,-999.0,64,-99.99,,,0.00,weatherlink.com 1.10,2013-05-10 00:53:00,
2013-05-09 18:08:00,61.5,50.0,30.11,East,82,0.0,-999.0,66,-99.99,,,0.00,weatherlink.com 1.10,2013-05-10 01:08:00,
2013-05-09 18:23:00,60.7,50.0,30.11,SE,132,1.0,-999.0,68,-99.99,,,0.00,weatherlink.com 1.10,2013-05-10 01:23:00,
2013-05-09 18:38:00,59.5,50.0,30.12,SSE,157,0.0,-999.0,70,-99.99,,,0.00,weatherlink.com 1.10,2013-05-10 01:38:00,
2013-05-09 18:53:00,58.0,49.0,30.12,SSW,197,1.0,-999.0,73,-99.99,,,0.00,weatherlink.com 1.10,2013-05-10 01:53:00,
2013-05-09 19:08:00,56.9,49.0,30.12,SW,223,1.0,-999.0,75,-99.99,,,0.00,weatherlink.com 1.10,2013-05-10 02:08:00,
2013-05-09 19:23:00,56.6,49.0,30.13,ESE,111,1.0,-999.0,76,-99.99,,,0.00,weatherlink.com 1.10,2013-05-10 02:23:00,
2013-05-09 19:38:00,55.7,49.0,30.13,South,169,2.0,-999.0,78,-99.99,,,0.00,weatherlink.com 1.10,2013-05-10 02:38:00,
2013-05-09 19:53:00,55.3,49.0,30.14,SSE,156,0.0,-999.0,80,-99.99,,,0.00,weatherlink.com 1.10,2013-05-10 02:53:00,
2013-05-09 20:08:00,55.0,49.0,30.14,East,84,0.0,-999.0,81,-99.99,,,0.00,weatherlink.com 1.10,2013-05-10 03:08:00,
2013-05-09 20:23:00,54.5,49.0,30.15,South,190,2.0,-999.0,82,-99.99,,,0.00,weatherlink.com 1.10,2013-05-10 03:23:00,
2013-05-09 20:38:00,54.4,49.0,30.15,South,184,4.0,-999.0,83,-99.99,,,0.00,weatherlink.com 1.10,2013-05-10 03:38:00,
2013-05-09 20:53:00,54.5,49.0,30.15,SW,221,0.0,-999.0,83,-99.99,,,0.00,weatherlink.com 1.10,2013-05-10 03:53:00,
2013-05-09 21:08:00,54.7,50.0,30.16,WSW,244,0.0,-999.0,83,-99.99,,,0.00,weatherlink.com 1.10,2013-05-10 04:08:00,
2013-05-09 21:23:00,54.5,49.0,30.16,South,188,0.0,-999.0,82,-99.99,,,0.00,weatherlink.com 1.10,2013-05-10 04:23:00,
2013-05-09 21:38:00,54.4,49.0,30.16,ESE,122,0.0,-999.0,82,-99.99,,,0.00,weatherlink.com 1.10,2013-05-10 04:38:00,
2013-05-09 21:53:00,54.1,49.0,30.17,WNW,289,0.0,-999.0,83,-99.99,,,0.00,weatherlink.com 1.10,2013-05-10 04:53:00,
2013-05-09 22:08:00,53.8,49.0,30.17,SW,217,1.0,-999.0,83,-99.99,,,0.00,weatherlink.com 1.10,2013-05-10 05:08:00,
2013-05-09 22:23:00,53.3,49.0,30.18,SW,226,2.0,-999.0,84,-99.99,,,0.00,weatherlink.com 1.10,2013-05-10 05:23:00,
2013-05-09 22:38:00,52.9,48.0,30.18,ESE,105,1.0,-999.0,84,-99.99,,,0.00,weatherlink.com 1.10,2013-05-10 05:38:00,
2013-05-09 22:53:00,52.9,49.0,30.18,WSW,250,0.0,-999.0,85,-99.99,,,0.00,weatherlink.com 1.10,2013-05-10 05:53:00,
2013-05-09 23:08:00,52.9,49.0,30.18,SE,134,1.0,-999.0,85,-99.99,,,0.00,weatherlink.com 1.10,2013-05-10 06:08:00,
2013-05-09 23:23:00,52.8,48.0,30.18,SW,230,1.0,-999.0,85,-99.99,,,0.00,weatherlink.com 1.10,2013-05-10 06:23:00,
2013-05-09 23:38:00,52.6,48.0,30.18,SSE,157,1.0,-999.0,85,-99.99,,,0.00,weatherlink.com 1.10,2013-05-10 06:38:00,
2013-05-09 23:53:00,52.6,48.0,30.18,SE,132,0.0,-999.0,85,-99.99,,,0.00,weatherlink.com 1.10,2013-05-10 06:53:00,